Aérodrome :
LOGIN :

S'inscrire | Disclaimer

   EN    FR    IT 

 










Légende :    VFR   VFR Marginal   IFR   IFR Intensif   IFR Très Intensif
Visi : 
Plafond : 
>= 8 km
>= 3000ft
5 à 8 km
1000 à 3000 ft
1500m à 5 km
500 à 1000 ft
800 à 1500m
200 à 500 ft
< 800m
< 200 ft
Symboles :   Orages  Brouillard  Fortes neiges  Fortes précipitations  Vent > 20 kt
SIGMETs :   Divers  Orages  Givrage  Turbulence  Onde Orograph.  Cendres Volcan.






- Altitude de l'aérodrome : 79 ft
- Code IATA : SPU


LDSP - Split

DERNIER METAR :
  • 090430Z 26002KT CAVOK 12/03 Q1019 NOSIG

METARs EXPIRÉS :
  • 090400Z VRB02KT CAVOK 12/01 Q1019 NOSIG
  • 090330Z AUTO 34005KT CAVOK 13/M01 Q1019 NOSIG
  • 090300Z AUTO 00000KT CAVOK 12/01 Q1019 NOSIG
  • 090230Z AUTO VRB01KT CAVOK 12/01 Q1019 NOSIG
  • 090200Z AUTO 33003KT CAVOK 12/M00 Q1019 NOSIG

TAF TAF LDSP
Valide du 09 à 00h jusqu'au 10 à 00h UTC


082325Z 0900/1000 35005KT CAVOK TX24/0914Z TN11/0904Z
BECMG 0910/0912 23008KT
BECMG 0915/0917 35004KT



MET'MAP, la Météo Aéronautique d'un coup d'oeil ! - Copyright ORBIFLY Décembre 2007 - Disclaimer

ORBIFLY MET'MAP TEAM :

Programmation & Développement : Alexandra Zaïnal
Sur une idée originale de : Baudouin d'Aumeries
Assistance à la programmation : Marc-Olivier Méhu
Soutien technique & logistique : Manuel Goepfert

Contact : metmap@orbifly.com




SOURCES & CREDITS :

   NOAA